ID Time Temp Humidity Light PM2.5 PM10 Voltage Extra Firmware Position Fcnt TTN version Gateways Distance RSSI LSNR Radiosettings
2026-05-09 06:07:26 14.5625°C 63.75% 3.33V v255 No position 9381 ttn.v3 - -79 13 867.1MHz, SF9BW125, 4/5CR
- -121 -9.25 867.1MHz, SF9BW125, 4/5CR
- -124 -10.25 867.1MHz, SF9BW125, 4/5CR
2026-05-09 05:50:36 14.625°C 63.75% 3.33V v255 No position 9380 ttn.v3 - -78 12 868.3MHz, SF9BW125, 4/5CR
2026-05-09 05:33:47 14.625°C 63.75% 3.33V v255 No position 9379 ttn.v3 - -78 11.5 867.9MHz, SF9BW125, 4/5CR
- -121 -8 867.9MHz, SF9BW125, 4/5CR
- -121 -9 867.9MHz, SF9BW125, 4/5CR
2026-05-09 05:16:57 14.625°C 63.75% 3.33V v255 No position 9378 ttn.v3 - -79 11.75 868.1MHz, SF9BW125, 4/5CR
2026-05-09 05:00:07 14.6875°C 63.6875% 3.33V v255 No position 9377 ttn.v3 - -79 10.75 867.7MHz, SF9BW125, 4/5CR
- -120 -9.75 867.7MHz, SF9BW125, 4/5CR
- -123 -10.25 867.7MHz, SF9BW125, 4/5CR
2026-05-09 04:43:17 14.6875°C 63.6875% 3.33V v255 No position 9376 ttn.v3 - -76 8.75 868.5MHz, SF9BW125, 4/5CR
2026-05-09 04:26:28 14.6875°C 63.6875% 3.33V v255 No position 9375 ttn.v3 - -75 8.75 867.5MHz, SF9BW125, 4/5CR
2026-05-09 04:09:38 14.6875°C 63.6875% 3.34V v255 No position 9374 ttn.v3 - -78 11 868.3MHz, SF9BW125, 4/5CR
2026-05-09 03:52:48 14.6875°C 63.6875% 3.33V v255 No position 9373 ttn.v3 - -72 10 867.3MHz, SF9BW125, 4/5CR
- -119 -8.75 867.3MHz, SF9BW125, 4/5CR
- -124 -10.25 867.3MHz, SF9BW125, 4/5CR
2026-05-09 03:35:58 14.6875°C 63.625% 3.33V v255 No position 9372 ttn.v3 - -81 13.5 868.1MHz, SF9BW125, 4/5CR
2026-05-09 03:19:08 14.6875°C 63.625% 3.33V v255 No position 9371 ttn.v3 - -81 12.25 867.1MHz, SF9BW125, 4/5CR
- -121 -9.5 867.1MHz, SF9BW125, 4/5CR
- -122 -12 867.1MHz, SF9BW125, 4/5CR
2026-05-09 03:02:18 14.6875°C 63.625% 3.33V v255 No position 9370 ttn.v3 - -77 9.5 868.5MHz, SF9BW125, 4/5CR
2026-05-09 02:45:29 14.75°C 63.625% 3.33V v255 No position 9369 ttn.v3 - -77 12 867.9MHz, SF9BW125, 4/5CR
- -121 -7.25 867.9MHz, SF9BW125, 4/5CR
- -121 -9.5 867.9MHz, SF9BW125, 4/5CR
2026-05-09 02:28:39 14.75°C 63.625% 3.33V v255 No position 9368 ttn.v3 - -79 9.75 868.3MHz, SF9BW125, 4/5CR
2026-05-09 02:11:49 14.75°C 63.625% 3.33V v255 No position 9367 ttn.v3 - -79 12 867.7MHz, SF9BW125, 4/5CR
- -120 -11.75 867.7MHz, SF9BW125, 4/5CR
2026-05-09 01:54:59 14.75°C 63.5625% 3.33V v255 No position 9366 ttn.v3 - -81 11.75 868.1MHz, SF9BW125, 4/5CR
2026-05-09 01:38:09 14.75°C 63.625% 3.33V v255 No position 9365 ttn.v3 - -77 9.25 867.5MHz, SF9BW125, 4/5CR
2026-05-09 01:04:30 14.8125°C 63.5625% 3.33V v255 No position 9363 ttn.v3 - -83 11.25 867.3MHz, SF9BW125, 4/5CR
- -120 -8.25 867.3MHz, SF9BW125, 4/5CR
2026-05-09 00:47:40 14.8125°C 63.5625% 3.34V v255 No position 9362 ttn.v3 - -77 11.25 868.3MHz, SF9BW125, 4/5CR
2026-05-09 00:30:50 14.8125°C 63.5625% 3.34V v255 No position 9361 ttn.v3 - -78 11.75 867.1MHz, SF9BW125, 4/5CR
- -122 -8 867.1MHz, SF9BW125, 4/5CR
- -120 -10 867.1MHz, SF9BW125, 4/5CR
2026-05-09 00:14:00 14.8125°C 63.5625% 3.33V v255 No position 9360 ttn.v3 - -78 12 868.1MHz, SF9BW125, 4/5CR
2026-05-08 23:57:10 14.8125°C 63.5625% 3.33V v255 No position 9359 ttn.v3 - -79 12 867.9MHz, SF9BW125, 4/5CR
- -121 -8 867.9MHz, SF9BW125, 4/5CR
- -121 -9.5 867.9MHz, SF9BW125, 4/5CR
2026-05-08 23:40:20 14.8125°C 63.5% 3.33V v255 No position 9358 ttn.v3 - -79 9 868.5MHz, SF9BW125, 4/5CR
2026-05-08 23:23:30 14.8125°C 63.5% 3.33V v255 No position 9357 ttn.v3 - -76 10.75 867.7MHz, SF9BW125, 4/5CR
- -121 -12.5 867.7MHz, SF9BW125, 4/5CR
2026-05-08 23:06:40 14.8125°C 63.5% 3.33V v255 No position 9356 ttn.v3 - -76 10.75 868.3MHz, SF9BW125, 4/5CR
2026-05-08 22:49:51 14.8125°C 63.5% 3.34V v255 No position 9355 ttn.v3 - -75 8 867.5MHz, SF9BW125, 4/5CR
2026-05-08 22:33:01 14.875°C 63.5% 3.33V v255 No position 9354 ttn.v3 - -79 12.5 868.1MHz, SF9BW125, 4/5CR
2026-05-08 22:16:11 14.875°C 63.4375% 3.33V v255 No position 9353 ttn.v3 - -72 10.5 867.3MHz, SF9BW125, 4/5CR
- -120 -8 867.3MHz, SF9BW125, 4/5CR
- -124 -14 867.3MHz, SF9BW125, 4/5CR
2026-05-08 21:59:21 14.8125°C 63.4375% 3.34V v255 No position 9352 ttn.v3 - -77 8.75 868.5MHz, SF9BW125, 4/5CR
2026-05-08 21:42:31 14.875°C 63.4375% 3.34V v255 No position 9351 ttn.v3 - -81 12.75 867.1MHz, SF9BW125, 4/5CR
- -121 -9.5 867.1MHz, SF9BW125, 4/5CR
- -124 -10 867.1MHz, SF9BW125, 4/5CR
2026-05-08 21:25:41 14.875°C 63.4375% 3.33V v255 No position 9350 ttn.v3 - -81 10.75 868.3MHz, SF9BW125, 4/5CR
2026-05-08 21:08:51 14.875°C 63.4375% 3.33V v255 No position 9349 ttn.v3 - -77 12.25 867.9MHz, SF9BW125, 4/5CR
- -121 -10.5 867.9MHz, SF9BW125, 4/5CR
2026-05-08 20:52:01 14.875°C 63.5% 3.33V v255 No position 9348 ttn.v3 - -83 13.25 868.1MHz, SF9BW125, 4/5CR
- -121 -10.5 868.1MHz, SF9BW125, 4/5CR
2026-05-08 20:35:12 14.875°C 63.5625% 3.34V v255 No position 9347 ttn.v3 - -76 11.25 867.7MHz, SF9BW125, 4/5CR
- -121 -12.5 867.7MHz, SF9BW125, 4/5CR
2026-05-08 20:18:22 14.875°C 63.625% 3.33V v255 No position 9346 ttn.v3 - -81 9.25 868.5MHz, SF9BW125, 4/5CR
2026-05-08 20:01:32 14.875°C 63.625% 3.34V v255 No position 9345 ttn.v3 - -77 8.5 867.5MHz, SF9BW125, 4/5CR
2026-05-08 19:44:42 14.875°C 63.625% 3.33V v255 No position 9344 ttn.v3 - -79 12.75 868.3MHz, SF9BW125, 4/5CR
2026-05-08 19:27:52 14.875°C 63.5625% 3.33V v255 No position 9343 ttn.v3 - -78 12.25 867.3MHz, SF9BW125, 4/5CR
- -119 -9 867.3MHz, SF9BW125, 4/5CR
2026-05-08 19:11:02 14.875°C 63.5625% 3.33V v255 No position 9342 ttn.v3 - -83 12.5 868.1MHz, SF9BW125, 4/5CR
2026-05-08 18:54:12 14.875°C 63.5625% 3.33V v255 No position 9341 ttn.v3 - -79 11.75 867.1MHz, SF9BW125, 4/5CR
- -121 -12.5 867.1MHz, SF9BW125, 4/5CR
- -124 -13.75 867.1MHz, SF9BW125, 4/5CR
2026-05-08 18:37:22 14.875°C 63.5% 3.33V v255 No position 9340 ttn.v3 - -79 8.5 868.5MHz, SF9BW125, 4/5CR
2026-05-08 18:20:33 14.875°C 63.5% 3.33V v255 No position 9339 ttn.v3 - -83 13.75 867.9MHz, SF9BW125, 4/5CR
2026-05-08 18:03:43 14.8125°C 63.5% 3.33V v255 No position 9338 ttn.v3 - -79 12.5 868.3MHz, SF9BW125, 4/5CR
2026-05-08 17:46:53 14.8125°C 63.5% 3.33V v255 No position 9337 ttn.v3 - -77 11 867.7MHz, SF9BW125, 4/5CR
- -120 -12.25 867.7MHz, SF9BW125, 4/5CR
2026-05-08 17:30:03 14.8125°C 63.4375% 3.34V v255 No position 9336 ttn.v3 - -83 12.5 868.1MHz, SF9BW125, 4/5CR
2026-05-08 17:13:13 14.8125°C 63.4375% 3.34V v255 No position 9335 ttn.v3 - -77 9 867.5MHz, SF9BW125, 4/5CR
2026-05-08 16:56:24 14.8125°C 63.4375% 3.33V v255 No position 9334 ttn.v3 - -73 8.5 868.5MHz, SF9BW125, 4/5CR
2026-05-08 16:39:34 14.75°C 63.375% 3.33V v255 No position 9333 ttn.v3 - -75 11 867.3MHz, SF9BW125, 4/5CR
- -120 -8.75 867.3MHz, SF9BW125, 4/5CR
2026-05-08 16:22:44 14.8125°C 63.375% 3.34V v255 No position 9332 ttn.v3 - -79 11.25 868.3MHz, SF9BW125, 4/5CR
2026-05-08 16:05:54 14.75°C 63.375% 3.33V v255 No position 9331 ttn.v3 - -121 -6 867.1MHz, SF9BW125, 4/5CR
- -120 -11.5 867.1MHz, SF9BW125, 4/5CR
2026-05-08 15:49:04 14.75°C 63.375% 3.34V v255 No position 9330 ttn.v3 - -81 12.75 868.1MHz, SF9BW125, 4/5CR
2026-05-08 15:32:15 14.75°C 63.3125% 3.33V v255 No position 9329 ttn.v3 - -81 12.5 867.9MHz, SF9BW125, 4/5CR
- -121 -10.5 867.9MHz, SF9BW125, 4/5CR
- -122 -11.5 867.9MHz, SF9BW125, 4/5CR
2026-05-08 15:15:25 14.75°C 63.3125% 3.33V v255 No position 9328 ttn.v3 - -79 8.75 868.5MHz, SF9BW125, 4/5CR
2026-05-08 14:58:35 14.75°C 63.3125% 3.33V v255 No position 9327 ttn.v3 - -83 12 867.7MHz, SF9BW125, 4/5CR
- -120 -12.75 867.7MHz, SF9BW125, 4/5CR
2026-05-08 14:41:45 14.6875°C 63.25% 3.34V v255 No position 9326 ttn.v3 - -79 12.75 868.3MHz, SF9BW125, 4/5CR
2026-05-08 14:24:55 14.6875°C 63.25% 3.33V v255 No position 9325 ttn.v3 - -75 9 867.5MHz, SF9BW125, 4/5CR
2026-05-08 14:08:06 14.6875°C 63.3125% 3.33V v255 No position 9324 ttn.v3 - -79 12.75 868.1MHz, SF9BW125, 4/5CR
2026-05-08 13:51:16 14.6875°C 63.3125% 3.33V v255 No position 9323 ttn.v3 - -73 11.75 867.3MHz, SF9BW125, 4/5CR
- -119 -9.25 867.3MHz, SF9BW125, 4/5CR
2026-05-08 13:34:26 14.6875°C 63.3125% 3.33V v255 No position 9322 ttn.v3 - -78 8.75 868.5MHz, SF9BW125, 4/5CR
2026-05-08 13:17:36 14.625°C 63.3125% 3.33V v255 No position 9321 ttn.v3 - -79 12 867.1MHz, SF9BW125, 4/5CR
- -120 -9 867.1MHz, SF9BW125, 4/5CR
2026-05-08 13:00:47 14.625°C 63.375% 3.33V v255 No position 9320 ttn.v3 - -77 12.75 868.3MHz, SF9BW125, 4/5CR
2026-05-08 12:43:57 14.625°C 63.375% 3.33V v255 No position 9319 ttn.v3 - -78 11.5 867.9MHz, SF9BW125, 4/5CR
- -121 -9 867.9MHz, SF9BW125, 4/5CR
- -123 -11.25 867.9MHz, SF9BW125, 4/5CR
2026-05-08 12:27:07 14.5625°C 63.375% 3.33V v255 No position 9318 ttn.v3 - -83 12.75 868.1MHz, SF9BW125, 4/5CR
- -122 -12 868.1MHz, SF9BW125, 4/5CR
2026-05-08 12:10:17 14.5625°C 63.3125% 3.33V v255 No position 9317 ttn.v3 - -76 11.5 867.7MHz, SF9BW125, 4/5CR
2026-05-08 11:53:28 14.5625°C 63.25% 3.34V v255 No position 9316 ttn.v3 - -78 8.75 868.5MHz, SF9BW125, 4/5CR
2026-05-08 11:36:38 14.5°C 63.1875% 3.33V v255 No position 9315 ttn.v3 - -75 8.25 867.5MHz, SF9BW125, 4/5CR
2026-05-08 11:19:48 14.5625°C 63.1875% 3.33V v255 No position 9314 ttn.v3 - -81 12.25 868.3MHz, SF9BW125, 4/5CR
2026-05-08 11:02:58 14.5625°C 63.125% 3.34V v255 No position 9313 ttn.v3 - -77 12 867.3MHz, SF9BW125, 4/5CR
- -120 -6.25 867.3MHz, SF9BW125, 4/5CR
2026-05-08 10:48:25 14.4375°C 63.3125% 3.33V 79966997 v255 No position 9312 ttn.v3 - -73 10.25 868.1MHz, SF12BW125, 4/5CR
- -121 -11 868.1MHz, SF12BW125, 4/5CR
- -125 -15.5 868.1MHz, SF12BW125, 4/5CR
2026-05-08 10:29:33 14.4375°C 63.25% 3.34V v255 No position 9311 ttn.v3 - -79 12.5 867.1MHz, SF9BW125, 4/5CR
- -121 -9.5 867.1MHz, SF9BW125, 4/5CR
- -121 -10.75 867.1MHz, SF9BW125, 4/5CR
2026-05-08 10:12:44 14.4375°C 63.125% 3.33V v255 No position 9310 ttn.v3 - -78 9 868.5MHz, SF9BW125, 4/5CR
2026-05-08 09:55:54 14.4375°C 63.125% 3.34V v255 No position 9309 ttn.v3 - -81 12.5 867.9MHz, SF9BW125, 4/5CR
- -124 -9.5 867.9MHz, SF9BW125, 4/5CR
- -121 -10 867.9MHz, SF9BW125, 4/5CR
2026-05-08 09:39:04 14.4375°C 63.0625% 3.34V v255 No position 9308 ttn.v3 - -77 12 868.3MHz, SF9BW125, 4/5CR
2026-05-08 09:22:14 14.375°C 63.0625% 3.33V v255 No position 9307 ttn.v3 - -78 11.5 867.7MHz, SF9BW125, 4/5CR
2026-05-08 09:05:25 14.375°C 63.0625% 3.34V v255 No position 9306 ttn.v3 - -79 12 868.1MHz, SF9BW125, 4/5CR
2026-05-08 08:48:35 14.375°C 63% 3.34V v255 No position 9305 ttn.v3 - -77 8.25 867.5MHz, SF9BW125, 4/5CR
2026-05-08 08:31:45 14.375°C 63% 3.34V v255 No position 9304 ttn.v3 - -78 9.25 868.5MHz, SF9BW125, 4/5CR
2026-05-08 08:14:56 14.375°C 62.9375% 3.33V v255 No position 9303 ttn.v3 - -81 11.75 867.3MHz, SF9BW125, 4/5CR
- -120 -8 867.3MHz, SF9BW125, 4/5CR
2026-05-08 07:58:06 14.375°C 62.9375% 3.33V v255 No position 9302 ttn.v3 - -78 12 868.3MHz, SF9BW125, 4/5CR
2026-05-08 07:41:16 14.375°C 62.875% 3.34V v255 No position 9301 ttn.v3 - -77 12.5 867.1MHz, SF9BW125, 4/5CR
- -121 -10 867.1MHz, SF9BW125, 4/5CR
- -120 -10.5 867.1MHz, SF9BW125, 4/5CR
2026-05-08 07:24:26 14.375°C 62.875% 3.33V v255 No position 9300 ttn.v3 - -81 13.5 868.1MHz, SF9BW125, 4/5CR
2026-05-08 07:07:37 14.375°C 62.8125% 3.33V v255 No position 9299 ttn.v3 - -78 12.5 867.9MHz, SF9BW125, 4/5CR
- -120 -10.75 867.9MHz, SF9BW125, 4/5CR
2026-05-08 06:50:47 14.375°C 62.8125% 3.33V v255 No position 9298 ttn.v3 - -79 9.25 868.5MHz, SF9BW125, 4/5CR
2026-05-08 06:33:57 14.375°C 62.75% 3.33V v255 No position 9297 ttn.v3 - -72 10.5 867.7MHz, SF9BW125, 4/5CR
2026-05-08 06:17:08 14.4375°C 62.75% 3.33V v255 No position 9296 ttn.v3 - -79 12.5 868.3MHz, SF9BW125, 4/5CR
2026-05-08 06:00:18 14.375°C 62.6875% 3.34V v255 No position 9295 ttn.v3 - -77 9.25 867.5MHz, SF9BW125, 4/5CR
2026-05-08 05:43:28 14.4375°C 62.6875% 3.33V v255 No position 9294 ttn.v3 - -76 12 868.1MHz, SF9BW125, 4/5CR
- -121 -13.5 868.1MHz, SF9BW125, 4/5CR
2026-05-08 05:26:39 14.4375°C 62.625% 3.33V v255 No position 9293 ttn.v3 - -77 12.25 867.3MHz, SF9BW125, 4/5CR
- -120 -7.75 867.3MHz, SF9BW125, 4/5CR
2026-05-08 05:09:49 14.4375°C 62.625% 3.33V v255 No position 9292 ttn.v3 - -75 8.75 868.5MHz, SF9BW125, 4/5CR
2026-05-08 04:52:59 14.4375°C 62.5625% 3.34V v255 No position 9291 ttn.v3 - -79 12.25 867.1MHz, SF9BW125, 4/5CR
- -124 -9 867.1MHz, SF9BW125, 4/5CR
- -120 -9.25 867.1MHz, SF9BW125, 4/5CR
2026-05-08 04:36:09 14.4375°C 62.5625% 3.33V v255 No position 9290 ttn.v3 - -78 11.25 868.3MHz, SF9BW125, 4/5CR
2026-05-08 04:19:20 14.4375°C 62.5% 3.34V v255 No position 9289 ttn.v3 - -77 11.75 867.9MHz, SF9BW125, 4/5CR
- -121 -8.75 867.9MHz, SF9BW125, 4/5CR
- -124 -12.25 867.9MHz, SF9BW125, 4/5CR
2026-05-08 04:02:30 14.4375°C 62.4375% 3.33V v255 No position 9288 ttn.v3 - -78 11.5 868.1MHz, SF9BW125, 4/5CR
2026-05-08 03:45:40 14.4375°C 62.375% 3.33V v255 No position 9287 ttn.v3 - -79 13.5 867.7MHz, SF9BW125, 4/5CR
- -120 -10 867.7MHz, SF9BW125, 4/5CR
2026-05-08 03:28:50 14.5°C 62.375% 3.33V v255 No position 9286 ttn.v3 - -78 9 868.5MHz, SF9BW125, 4/5CR
2026-05-08 03:12:01 14.5°C 62.3125% 3.34V v255 No position 9285 ttn.v3 - -77 9.25 867.5MHz, SF9BW125, 4/5CR
2026-05-08 02:55:11 14.5°C 62.25% 3.33V v255 No position 9284 ttn.v3 - -72 9.75 868.3MHz, SF9BW125, 4/5CR
2026-05-08 02:38:21 14.5°C 62.25% 3.33V v255 No position 9283 ttn.v3 - -79 11.5 867.3MHz, SF9BW125, 4/5CR
- -120 -9 867.3MHz, SF9BW125, 4/5CR
2026-05-08 02:21:31 14.5°C 62.1875% 3.33V v255 No position 9282 ttn.v3 - -78 11.75 868.1MHz, SF9BW125, 4/5CR
2026-05-08 02:04:42 14.5°C 62.125% 3.33V v255 No position 9281 ttn.v3 - -79 12.5 867.1MHz, SF9BW125, 4/5CR
- -121 -9.75 867.1MHz, SF9BW125, 4/5CR
- -123 -10.25 867.1MHz, SF9BW125, 4/5CR
2026-05-08 01:47:52 14.5°C 62.0625% 3.33V v255 No position 9280 ttn.v3 - -73 8.75 868.5MHz, SF9BW125, 4/5CR
2026-05-08 01:31:02 14.5°C 62.0625% 3.34V v255 No position 9279 ttn.v3 - -79 12.5 867.9MHz, SF9BW125, 4/5CR
- -123 -10 867.9MHz, SF9BW125, 4/5CR
2026-05-08 01:14:12 14.5625°C 61.9375% 3.33V v255 No position 9278 ttn.v3 - -78 13 868.3MHz, SF9BW125, 4/5CR
2026-05-08 00:57:23 14.5625°C 61.9375% 3.33V v255 No position 9277 ttn.v3 - -77 11.5 867.7MHz, SF9BW125, 4/5CR
- -120 -11.25 867.7MHz, SF9BW125, 4/5CR
2026-05-08 00:40:33 14.5625°C 61.875% 3.34V v255 No position 9276 ttn.v3 - -77 12.5 868.1MHz, SF9BW125, 4/5CR
2026-05-08 00:23:43 14.5625°C 61.8125% 3.33V v255 No position 9275 ttn.v3 - -77 9 867.5MHz, SF9BW125, 4/5CR
2026-05-08 00:06:53 14.5625°C 61.75% 3.33V v255 No position 9274 ttn.v3 - -79 8.75 868.5MHz, SF9BW125, 4/5CR
2026-05-07 23:50:03 14.5625°C 61.6875% 3.33V v255 No position 9273 ttn.v3 - -81 12.75 867.3MHz, SF9BW125, 4/5CR
- -120 -7.5 867.3MHz, SF9BW125, 4/5CR
- -125 -10.75 867.3MHz, SF9BW125, 4/5CR
2026-05-07 23:33:14 14.5625°C 61.6875% 3.33V v255 No position 9272 ttn.v3 - -79 12.25 868.3MHz, SF9BW125, 4/5CR
2026-05-07 23:16:24 14.5625°C 61.625% 3.34V v255 No position 9271 ttn.v3 - -81 11.5 867.1MHz, SF9BW125, 4/5CR
- -121 -9 867.1MHz, SF9BW125, 4/5CR
- -125 -9.5 867.1MHz, SF9BW125, 4/5CR
2026-05-07 22:59:34 14.5625°C 61.5625% 3.33V v255 No position 9270 ttn.v3 - -78 11.5 868.1MHz, SF9BW125, 4/5CR
2026-05-07 22:42:44 14.5625°C 61.5% 3.33V v255 No position 9269 ttn.v3 - -83 14 867.9MHz, SF9BW125, 4/5CR
- -120 -9 867.9MHz, SF9BW125, 4/5CR
2026-05-07 22:25:55 14.625°C 61.5% 3.34V v255 No position 9268 ttn.v3 - -79 8.75 868.5MHz, SF9BW125, 4/5CR
2026-05-07 22:09:05 14.5625°C 61.5% 3.33V v255 No position 9267 ttn.v3 - -79 13.25 867.7MHz, SF9BW125, 4/5CR
- -121 -11.75 867.7MHz, SF9BW125, 4/5CR
2026-05-07 21:52:15 14.5625°C 61.5% 3.34V v255 No position 9266 ttn.v3 - -78 10.25 868.3MHz, SF9BW125, 4/5CR
2026-05-07 21:35:25 14.5625°C 61.5% 3.34V v255 No position 9265 ttn.v3 - -79 9.5 867.5MHz, SF9BW125, 4/5CR
2026-05-07 21:18:36 14.625°C 61.5% 3.34V v255 No position 9264 ttn.v3 - -81 11 868.1MHz, SF9BW125, 4/5CR
- -122 -10.5 868.1MHz, SF9BW125, 4/5CR
2026-05-07 21:01:46 14.5625°C 61.5% 3.33V v255 No position 9263 ttn.v3 - -79 12 867.3MHz, SF9BW125, 4/5CR
2026-05-07 20:44:56 14.625°C 61.4375% 3.33V v255 No position 9262 ttn.v3 - -77 8.75 868.5MHz, SF9BW125, 4/5CR
2026-05-07 20:28:06 14.625°C 61.4375% 3.33V v255 No position 9261 ttn.v3 - -83 11.5 867.1MHz, SF9BW125, 4/5CR
- -119 -10.25 867.1MHz, SF9BW125, 4/5CR
- -123 -10.25 867.1MHz, SF9BW125, 4/5CR
2026-05-07 20:11:16 14.625°C 61.4375% 3.34V v255 No position 9260 ttn.v3 - -83 12.75 868.3MHz, SF9BW125, 4/5CR
2026-05-07 19:54:27 14.625°C 61.4375% 3.33V v255 No position 9259 ttn.v3 - -85 10.75 867.9MHz, SF9BW125, 4/5CR
- -122 -9 867.9MHz, SF9BW125, 4/5CR
- -121 -10.75 867.9MHz, SF9BW125, 4/5CR
2026-05-07 19:37:37 14.5625°C 61.4375% 3.33V v255 No position 9258 ttn.v3 - -78 10.75 868.1MHz, SF9BW125, 4/5CR
2026-05-07 19:20:47 14.625°C 61.4375% 3.34V v255 No position 9257 ttn.v3 - -83 11.5 867.7MHz, SF9BW125, 4/5CR
2026-05-07 19:03:57 14.625°C 61.4375% 3.33V v255 No position 9256 ttn.v3 - -81 9.5 868.5MHz, SF9BW125, 4/5CR
2026-05-07 18:47:07 14.5625°C 61.4375% 3.33V v255 No position 9255 ttn.v3 - -81 7.75 867.5MHz, SF9BW125, 4/5CR
2026-05-07 18:30:18 14.625°C 61.4375% 3.33V v255 No position 9254 ttn.v3 - -89 10.75 868.3MHz, SF9BW125, 4/5CR
2026-05-07 18:13:28 14.625°C 61.4375% 3.34V v255 No position 9253 ttn.v3 - -83 11.75 867.3MHz, SF9BW125, 4/5CR
2026-05-07 17:56:38 14.625°C 61.4375% 3.33V v255 No position 9252 ttn.v3 - -83 13.5 868.1MHz, SF9BW125, 4/5CR
- -120 -10 868.1MHz, SF9BW125, 4/5CR
2026-05-07 17:39:48 14.625°C 61.5% 3.33V v255 No position 9251 ttn.v3 - -83 12.75 867.1MHz, SF9BW125, 4/5CR
- -119 -11.5 867.1MHz, SF9BW125, 4/5CR
2026-05-07 17:22:58 14.625°C 61.5% 3.34V v255 No position 9250 ttn.v3 - -83 8.75 868.5MHz, SF9BW125, 4/5CR
2026-05-07 17:06:09 14.625°C 61.5% 3.34V v255 No position 9249 ttn.v3 - -79 11 867.9MHz, SF9BW125, 4/5CR
- -119 -9.75 867.9MHz, SF9BW125, 4/5CR
- -123 -12 867.9MHz, SF9BW125, 4/5CR
2026-05-07 16:49:19 14.625°C 61.5625% 3.33V v255 No position 9248 ttn.v3 - -85 12.25 868.3MHz, SF9BW125, 4/5CR
2026-05-07 16:32:29 14.625°C 61.5625% 3.33V v255 No position 9247 ttn.v3 - -78 12.5 867.7MHz, SF9BW125, 4/5CR
- -120 -9.5 867.7MHz, SF9BW125, 4/5CR
2026-05-07 16:15:39 14.625°C 61.5625% 3.34V v255 No position 9246 ttn.v3 - -81 13.25 868.1MHz, SF9BW125, 4/5CR
2026-05-07 15:58:50 14.625°C 61.5% 3.33V v255 No position 9245 ttn.v3 - -79 6.75 867.5MHz, SF9BW125, 4/5CR
2026-05-07 15:42:00 14.625°C 61.5625% 3.33V v255 No position 9244 ttn.v3 - -76 9 868.5MHz, SF9BW125, 4/5CR
2026-05-07 15:25:10 14.625°C 61.6875% 3.33V v255 No position 9243 ttn.v3 - -81 13.25 867.3MHz, SF9BW125, 4/5CR
- -120 -9.25 867.3MHz, SF9BW125, 4/5CR
- -124 -10.5 867.3MHz, SF9BW125, 4/5CR
2026-05-07 15:08:20 14.625°C 61.75% 3.33V v255 No position 9242 ttn.v3 - -77 11.25 868.3MHz, SF9BW125, 4/5CR
2026-05-07 14:51:30 14.625°C 61.75% 3.33V v255 No position 9241 ttn.v3 - -83 11.75 867.1MHz, SF9BW125, 4/5CR
- -121 -6.5 867.1MHz, SF9BW125, 4/5CR
- -120 -12 867.1MHz, SF9BW125, 4/5CR
2026-05-07 14:34:41 14.5625°C 61.8125% 3.34V v255 No position 9240 ttn.v3 - -79 11.75 868.1MHz, SF9BW125, 4/5CR
- -119 -11.75 868.1MHz, SF9BW125, 4/5CR
2026-05-07 14:17:51 14.5625°C 61.8125% 3.33V v255 No position 9239 ttn.v3 - -83 13.25 867.9MHz, SF9BW125, 4/5CR
- -120 -12.5 867.9MHz, SF9BW125, 4/5CR
2026-05-07 14:01:01 14.5625°C 61.75% 3.33V v255 No position 9238 ttn.v3 - -83 9.5 868.5MHz, SF9BW125, 4/5CR
2026-05-07 13:44:11 14.5625°C 61.9375% 3.33V v255 No position 9237 ttn.v3 - -79 11.75 867.7MHz, SF9BW125, 4/5CR
2026-05-07 13:27:22 14.5°C 62.0625% 3.33V v255 No position 9236 ttn.v3 - -77 11.75 868.3MHz, SF9BW125, 4/5CR
2026-05-07 13:10:32 14.5°C 62.125% 3.34V v255 No position 9235 ttn.v3 - -78 8.25 867.5MHz, SF9BW125, 4/5CR
2026-05-07 12:53:42 14.5°C 62.25% 3.33V v255 No position 9234 ttn.v3 - -85 13.25 868.1MHz, SF9BW125, 4/5CR
2026-05-07 12:36:52 14.4375°C 62.375% 3.33V v255 No position 9233 ttn.v3 - -72 10.75 867.3MHz, SF9BW125, 4/5CR
- -118 -8.5 867.3MHz, SF9BW125, 4/5CR
2026-05-07 12:20:03 14.4375°C 62.4375% 3.34V v255 No position 9232 ttn.v3 - -79 9.25 868.5MHz, SF9BW125, 4/5CR
2026-05-07 12:03:13 14.4375°C 62.375% 3.33V v255 No position 9231 ttn.v3 - -79 11.25 867.1MHz, SF9BW125, 4/5CR
- -122 -8.5 867.1MHz, SF9BW125, 4/5CR
- -120 -12.25 867.1MHz, SF9BW125, 4/5CR
2026-05-07 11:46:23 14.4375°C 62.5625% 3.33V v255 No position 9230 ttn.v3 - -79 10.75 868.3MHz, SF9BW125, 4/5CR
2026-05-07 11:29:33 14.4375°C 62.6875% 3.33V v255 No position 9229 ttn.v3 - -81 13 867.9MHz, SF9BW125, 4/5CR
- -120 -12.75 867.9MHz, SF9BW125, 4/5CR
2026-05-07 11:12:44 14.375°C 62.6875% 3.34V v255 No position 9228 ttn.v3 - -79 10.75 868.1MHz, SF9BW125, 4/5CR
2026-05-07 10:55:54 14.4375°C 62.75% 3.34V v255 No position 9227 ttn.v3 - -75 10.25 867.7MHz, SF9BW125, 4/5CR
- -120 -12.25 867.7MHz, SF9BW125, 4/5CR
2026-05-07 10:39:04 14.375°C 62.75% 3.34V v255 No position 9226 ttn.v3 - -79 9 868.5MHz, SF9BW125, 4/5CR
2026-05-07 10:22:15 14.375°C 62.8125% 3.33V v255 No position 9225 ttn.v3 - -77 7.75 867.5MHz, SF9BW125, 4/5CR
2026-05-07 10:05:25 14.375°C 62.875% 3.33V v255 No position 9224 ttn.v3 - -77 12.75 868.3MHz, SF9BW125, 4/5CR
2026-05-07 09:48:35 14.375°C 62.8125% 3.34V v255 No position 9223 ttn.v3 - -84 12 867.3MHz, SF9BW125, 4/5CR
- -118 -7.75 867.3MHz, SF9BW125, 4/5CR
2026-05-07 09:31:45 14.375°C 62.8125% 3.34V v255 No position 9222 ttn.v3 - -81 12.5 868.1MHz, SF9BW125, 4/5CR
2026-05-07 09:14:56 14.375°C 62.8125% 3.33V v255 No position 9221 ttn.v3 - -81 11 867.1MHz, SF9BW125, 4/5CR
- -121 -10.75 867.1MHz, SF9BW125, 4/5CR
2026-05-07 08:58:06 14.375°C 62.875% 3.33V v255 No position 9220 ttn.v3 - -77 8.25 868.5MHz, SF9BW125, 4/5CR
2026-05-07 08:41:16 14.375°C 63% 3.34V v255 No position 9219 ttn.v3 - -83 12.75 867.9MHz, SF9BW125, 4/5CR
- -121 -8.5 867.9MHz, SF9BW125, 4/5CR
2026-05-07 08:24:27 14.375°C 63% 3.33V v255 No position 9218 ttn.v3 - -81 11.25 868.3MHz, SF9BW125, 4/5CR
2026-05-07 08:07:37 14.375°C 62.9375% 3.33V v255 No position 9217 ttn.v3 - -78 12.25 867.7MHz, SF9BW125, 4/5CR
2026-05-07 07:53:04 14.3125°C 63.0625% 3.33V 79966997 v255 No position 9216 ttn.v3 - -77 11 868.1MHz, SF12BW125, 4/5CR
2026-05-07 07:34:12 14.3125°C 63% 3.33V v255 No position 9215 ttn.v3 - -75 8.75 867.5MHz, SF9BW125, 4/5CR
2026-05-07 07:17:22 14.3125°C 62.9375% 3.34V v255 No position 9214 ttn.v3 - -79 9 868.5MHz, SF9BW125, 4/5CR
2026-05-07 07:00:33 14.3125°C 62.9375% 3.33V v255 No position 9213 ttn.v3 - -73 11 867.3MHz, SF9BW125, 4/5CR
2026-05-07 06:43:43 14.25°C 62.875% 3.33V v255 No position 9212 ttn.v3 - -78 11.75 868.3MHz, SF9BW125, 4/5CR
2026-05-07 06:26:53 14.3125°C 62.875% 3.33V v255 No position 9211 ttn.v3 - -77 11.25 867.1MHz, SF9BW125, 4/5CR
- -121 -10 867.1MHz, SF9BW125, 4/5CR
2026-05-07 06:10:04 14.3125°C 62.875% 3.34V v255 No position 9210 ttn.v3 - -79 11.75 868.1MHz, SF9BW125, 4/5CR
- -122 -11.75 868.1MHz, SF9BW125, 4/5CR
2026-05-07 05:53:14 14.3125°C 62.875% 3.33V v255 No position 9209 ttn.v3 - -81 13 867.9MHz, SF9BW125, 4/5CR
- -120 -11 867.9MHz, SF9BW125, 4/5CR
- -122 -12.25 867.9MHz, SF9BW125, 4/5CR
2026-05-07 05:36:24 14.3125°C 62.875% 3.34V v255 No position 9208 ttn.v3 - -75 8.75 868.5MHz, SF9BW125, 4/5CR
2026-05-07 05:19:35 14.3125°C 62.8125% 3.34V v255 No position 9207 ttn.v3 - -77 11 867.7MHz, SF9BW125, 4/5CR
- -123 -9.5 867.7MHz, SF9BW125, 4/5CR
- -120 -14 867.7MHz, SF9BW125, 4/5CR
2026-05-07 05:02:45 14.3125°C 62.8125% 3.33V v255 No position 9206 ttn.v3 - -79 11.25 868.3MHz, SF9BW125, 4/5CR
2026-05-07 04:45:55 14.3125°C 62.75% 3.34V v255 No position 9205 ttn.v3 - -79 8.75 867.5MHz, SF9BW125, 4/5CR
2026-05-07 04:29:05 14.375°C 62.75% 3.33V v255 No position 9204 ttn.v3 - -81 11 868.1MHz, SF9BW125, 4/5CR
2026-05-07 04:12:16 14.3125°C 62.75% 3.33V v255 No position 9203 ttn.v3 - -79 12.25 867.3MHz, SF9BW125, 4/5CR
- -120 -8.75 867.3MHz, SF9BW125, 4/5CR
- -125 -11 867.3MHz, SF9BW125, 4/5CR
2026-05-07 03:55:26 14.375°C 62.6875% 3.33V v255 No position 9202 ttn.v3 - -79 9 868.5MHz, SF9BW125, 4/5CR
2026-05-07 03:38:36 14.375°C 62.6875% 3.34V v255 No position 9201 ttn.v3 - -81 13 867.1MHz, SF9BW125, 4/5CR
- -121 -9.25 867.1MHz, SF9BW125, 4/5CR
- -123 -9.5 867.1MHz, SF9BW125, 4/5CR
2026-05-07 03:21:47 14.375°C 62.6875% 3.34V v255 No position 9200 ttn.v3 - -79 11 868.3MHz, SF9BW125, 4/5CR
2026-05-07 03:04:57 14.375°C 62.6875% 3.33V v255 No position 9199 ttn.v3 - -79 12.5 867.9MHz, SF9BW125, 4/5CR
- -121 -9.25 867.9MHz, SF9BW125, 4/5CR
2026-05-07 02:48:07 14.4375°C 62.625% 3.34V v255 No position 9198 ttn.v3 - -89 12.25 868.1MHz, SF9BW125, 4/5CR
2026-05-07 02:31:18 14.4375°C 62.6875% 3.33V v255 No position 9197 ttn.v3 - -79 11.75 867.7MHz, SF9BW125, 4/5CR
- -119 -13 867.7MHz, SF9BW125, 4/5CR
2026-05-07 02:14:28 14.4375°C 62.6875% 3.33V v255 No position 9196 ttn.v3 - -83 9.25 868.5MHz, SF9BW125, 4/5CR
2026-05-07 01:57:38 14.4375°C 62.625% 3.34V v255 No position 9195 ttn.v3 - -81 9.25 867.5MHz, SF9BW125, 4/5CR
2026-05-07 01:40:48 14.5°C 62.625% 3.34V v255 No position 9194 ttn.v3 - -77 12 868.3MHz, SF9BW125, 4/5CR
2026-05-07 01:23:59 14.5°C 62.5% 3.33V v255 No position 9193 ttn.v3 - -79 11.5 867.3MHz, SF9BW125, 4/5CR
- -120 -9 867.3MHz, SF9BW125, 4/5CR
- -127 -13.5 867.3MHz, SF9BW125, 4/5CR
2026-05-07 01:07:09 14.5°C 62.5% 3.34V v255 No position 9192 ttn.v3 - -83 13.5 868.1MHz, SF9BW125, 4/5CR
2026-05-07 00:50:19 14.5°C 62.5% 3.34V v255 No position 9191 ttn.v3 - -83 11.75 867.1MHz, SF9BW125, 4/5CR
- -121 -8.75 867.1MHz, SF9BW125, 4/5CR
- -124 -10.25 867.1MHz, SF9BW125, 4/5CR
2026-05-07 00:33:29 14.5625°C 62.5625% 3.34V v255 No position 9190 ttn.v3 - -78 8.75 868.5MHz, SF9BW125, 4/5CR
2026-05-07 00:16:40 14.5625°C 62.5625% 3.33V v255 No position 9189 ttn.v3 - -83 13.5 867.9MHz, SF9BW125, 4/5CR
- -124 -9.75 867.9MHz, SF9BW125, 4/5CR
- -121 -12.75 867.9MHz, SF9BW125, 4/5CR
2026-05-06 23:59:50 14.5625°C 62.625% 3.34V v255 No position 9188 ttn.v3 - -81 11.5 868.3MHz, SF9BW125, 4/5CR
2026-05-06 23:43:00 14.625°C 62.5% 3.33V v255 No position 9187 ttn.v3 - -79 12.5 867.7MHz, SF9BW125, 4/5CR
- -124 -11.25 867.7MHz, SF9BW125, 4/5CR
- -121 -13.75 867.7MHz, SF9BW125, 4/5CR
2026-05-06 23:26:10 14.625°C 62.5% 3.34V v255 No position 9186 ttn.v3 - -78 11.5 868.1MHz, SF9BW125, 4/5CR
2026-05-06 23:09:20 14.625°C 62.375% 3.33V v255 No position 9185 ttn.v3 - -75 8.5 867.5MHz, SF9BW125, 4/5CR
2026-05-06 22:52:31 14.625°C 62.375% 3.33V v255 No position 9184 ttn.v3 - -78 8 868.5MHz, SF9BW125, 4/5CR
2026-05-06 22:35:41 14.625°C 62.375% 3.34V v255 No position 9183 ttn.v3 - -73 11.25 867.3MHz, SF9BW125, 4/5CR
- -120 -11.25 867.3MHz, SF9BW125, 4/5CR
- -126 -15 867.3MHz, SF9BW125, 4/5CR
2026-05-06 22:18:51 14.625°C 62.3125% 3.33V v255 No position 9182 ttn.v3 - -79 12 868.3MHz, SF9BW125, 4/5CR
2026-05-06 22:02:01 14.625°C 62.3125% 3.33V v255 No position 9181 ttn.v3 - -76 12 867.1MHz, SF9BW125, 4/5CR
- -123 -7.25 867.1MHz, SF9BW125, 4/5CR
- -119 -10 867.1MHz, SF9BW125, 4/5CR

Message count: 200
Node count: 1

Messages per node

Number of messages in list aboveNodes
200

Statistics per gateway

GatewayNumber of messagesNumber of nodesNodes
1991
731
451

Filter by dataset